Wetterdaten: Woche 29.01.24 - 04.02.24 (KW5)
Datum Zeit Temp. I. Temp. A. Feuchte I. Feuchte A. Luftdruck Regen Wind Richtung Sonnenschein Solar Taupunkt Windchill Windböen
29.01.2024 00:00 22,3 °C 0,8 °C 51 % 82 % 1031,2 hPa 0,0 l/m² 9,8 km/h (2 Bft) O 0,00 h 0 W/m² -2,0 °C -2,4 °C 12,1 km/h (2 Bft)
29.01.2024 01:00 22,3 °C 0,7 °C 51 % 81 % 1030,9 hPa 0,0 l/m² 3,2 km/h (1 Bft) O 0,00 h 0 W/m² -2,2 °C 0,7 °C 5,0 km/h (1 Bft)
29.01.2024 02:00 22,3 °C 0,9 °C 51 % 80 % 1030,6 hPa 0,0 l/m² 4,4 km/h (1 Bft) O 0,00 h 0 W/m² -2,2 °C 0,4 °C 6,8 km/h (2 Bft)
29.01.2024 03:00 22,2 °C 1,2 °C 51 % 78 % 1030,1 hPa 0,0 l/m² 5,0 km/h (1 Bft) O-SO 0,00 h 0 W/m² -2,2 °C 1,2 °C 7,4 km/h (2 Bft)
29.01.2024 04:00 22,2 °C 0,9 °C 50 % 79 % 1029,6 hPa 0,0 l/m² 3,3 km/h (1 Bft) O-SO 0,00 h 0 W/m² -2,4 °C 0,9 °C 5,0 km/h (1 Bft)
29.01.2024 05:00 22,3 °C 0,7 °C 50 % 79 % 1029,4 hPa 0,0 l/m² 2,3 km/h (1 Bft) O 0,00 h 0 W/m² -2,6 °C 0,7 °C 4,5 km/h (1 Bft)
29.01.2024 06:00 22,5 °C -0,0 °C 49 % 80 % 1029,5 hPa 0,0 l/m² 2,1 km/h (1 Bft) O 0,00 h 0 W/m² -3,1 °C -0,0 °C 3,3 km/h (1 Bft)
29.01.2024 07:00 22,5 °C -1,8 °C 47 % 85 % 1029,6 hPa 0,0 l/m² 0,0 km/h (0 Bft) O 0,00 h 9 W/m² -4,0 °C -1,8 °C 0,0 km/h (0 Bft)
29.01.2024 08:00 22,5 °C -1,5 °C 47 % 86 % 1029,6 hPa 0,0 l/m² 0,0 km/h (0 Bft) O 0,38 h 42 W/m² -3,5 °C -1,5 °C 0,0 km/h (0 Bft)
29.01.2024 09:00 23,0 °C 0,9 °C 46 % 83 % 1029,7 hPa 0,0 l/m² 0,0 km/h (0 Bft) O 1,00 h 143 W/m² -1,6 °C 0,9 °C 0,3 km/h (0 Bft)
29.01.2024 10:00 23,7 °C 3,8 °C 46 % 77 % 1029,8 hPa 0,0 l/m² 1,4 km/h (1 Bft) O 1,00 h 264 W/m² 0,2 °C 3,8 °C 2,4 km/h (1 Bft)
29.01.2024 11:00 24,2 °C 6,2 °C 45 % 71 % 1029,9 hPa 0,0 l/m² 2,8 km/h (1 Bft) SW 1,00 h 352 W/m² 1,3 °C 6,2 °C 4,9 km/h (1 Bft)
29.01.2024 12:00 24,3 °C 8,2 °C 45 % 68 % 1029,7 hPa 0,0 l/m² 2,4 km/h (1 Bft) SW 0,98 h 308 W/m² 2,7 °C 8,1 °C 4,3 km/h (1 Bft)
29.01.2024 13:00 24,1 °C 9,4 °C 45 % 65 % 1029,3 hPa 0,0 l/m² 7,6 km/h (2 Bft) SW 1,00 h 247 W/m² 3,2 °C 8,3 °C 10,5 km/h (2 Bft)
29.01.2024 14:00 23,8 °C 9,6 °C 45 % 66 % 1028,9 hPa 0,0 l/m² 8,9 km/h (2 Bft) S-SW 1,00 h 188 W/m² 3,6 °C 7,8 °C 11,9 km/h (2 Bft)
29.01.2024 15:00 23,6 °C 9,0 °C 46 % 68 % 1029,0 hPa 0,0 l/m² 5,6 km/h (2 Bft) SW 1,02 h 102 W/m² 3,4 °C 8,9 °C 7,6 km/h (2 Bft)
29.01.2024 16:00 23,3 °C 7,2 °C 46 % 74 % 1029,0 hPa 0,0 l/m² 1,0 km/h (0 Bft) S-SW 0,03 h 22 W/m² 2,8 °C 7,2 °C 1,7 km/h (1 Bft)
29.01.2024 17:00 23,1 °C 5,3 °C 45 % 77 % 1029,4 hPa 0,0 l/m² 0,7 km/h (0 Bft) S-SW 0,00 h 0 W/m² 1,6 °C 5,3 °C 2,0 km/h (1 Bft)
29.01.2024 18:00 22,9 °C 4,7 °C 46 % 77 % 1029,5 hPa 0,0 l/m² 2,8 km/h (1 Bft) S-SO 0,00 h 0 W/m² 0,9 °C 4,6 °C 4,9 km/h (1 Bft)
29.01.2024 19:00 22,8 °C 4,6 °C 47 % 76 % 1029,6 hPa 0,0 l/m² 0,9 km/h (0 Bft) S-SO 0,00 h 0 W/m² 0,9 °C 4,6 °C 2,4 km/h (1 Bft)
29.01.2024 20:00 22,7 °C 3,4 °C 46 % 80 % 1029,9 hPa 0,0 l/m² 1,3 km/h (1 Bft) S-SO 0,00 h 0 W/m² 0,3 °C 3,4 °C 2,9 km/h (1 Bft)
29.01.2024 21:00 22,9 °C 3,2 °C 47 % 82 % 1030,0 hPa 0,0 l/m² 1,3 km/h (1 Bft) S-SO 0,00 h 0 W/m² 0,4 °C 3,2 °C 2,9 km/h (1 Bft)
29.01.2024 22:00 22,8 °C 2,2 °C 47 % 83 % 1030,0 hPa 0,0 l/m² 0,2 km/h (0 Bft) S-SO 0,00 h 0 W/m² -0,3 °C 2,2 °C 0,8 km/h (0 Bft)
29.01.2024 23:00 22,6 °C 0,4 °C 47 % 88 % 1030,2 hPa 0,0 l/m² 1,1 km/h (0 Bft) S-SO 0,00 h 0 W/m² -1,4 °C 0,4 °C 2,7 km/h (1 Bft)
30.01.2024 00:00 22,5 °C 1,4 °C 47 % 88 % 1030,4 hPa 0,0 l/m² 2,1 km/h (1 Bft) S-SO 0,00 h 0 W/m² -0,3 °C 1,4 °C 4,1 km/h (1 Bft)
30.01.2024 01:00 22,4 °C 2,8 °C 47 % 84 % 1030,3 hPa 0,0 l/m² 2,4 km/h (1 Bft) S-SO 0,00 h 0 W/m² 0,4 °C 2,7 °C 3,7 km/h (1 Bft)
30.01.2024 02:00 22,4 °C 1,7 °C 48 % 87 % 1030,0 hPa 0,0 l/m² 0,2 km/h (0 Bft) S-SO 0,00 h 0 W/m² -0,1 °C 1,7 °C 0,8 km/h (0 Bft)
30.01.2024 03:00 22,4 °C 2,3 °C 47 % 86 % 1029,8 hPa 0,0 l/m² 1,9 km/h (1 Bft) S-SO 0,00 h 0 W/m² 0,2 °C 2,3 °C 3,8 km/h (1 Bft)
30.01.2024 04:00 22,3 °C 1,6 °C 47 % 87 % 1029,7 hPa 0,0 l/m² 1,6 km/h (1 Bft) S-SW 0,00 h 0 W/m² -0,3 °C 1,6 °C 3,0 km/h (1 Bft)
30.01.2024 05:00 22,3 °C 1,8 °C 47 % 87 % 1029,5 hPa 0,0 l/m² 1,4 km/h (1 Bft) S 0,00 h 0 W/m² -0,1 °C 1,8 °C 2,7 km/h (1 Bft)
30.01.2024 06:00 22,2 °C 1,3 °C 47 % 88 % 1029,4 hPa 0,0 l/m² 2,0 km/h (1 Bft) S-SW 0,00 h 0 W/m² -0,5 °C 1,3 °C 4,0 km/h (1 Bft)
30.01.2024 07:00 22,0 °C 1,6 °C 43 % 87 % 1029,3 hPa 0,0 l/m² 2,7 km/h (1 Bft) S-SO 0,00 h 5 W/m² -0,3 °C 1,4 °C 4,9 km/h (1 Bft)
30.01.2024 08:00 22,0 °C 1,4 °C 45 % 87 % 1029,4 hPa 0,0 l/m² 0,7 km/h (0 Bft) SO 0,12 h 32 W/m² -0,5 °C 1,4 °C 1,8 km/h (1 Bft)
30.01.2024 09:00 22,1 °C 2,1 °C 45 % 88 % 1029,4 hPa 0,0 l/m² 0,0 km/h (0 Bft) SO 1,02 h 114 W/m² 0,2 °C 2,1 °C 0,1 km/h (0 Bft)
30.01.2024 10:00 22,4 °C 4,5 °C 45 % 84 % 1029,2 hPa 0,0 l/m² 0,0 km/h (0 Bft) SO 1,00 h 194 W/m² 2,0 °C 4,5 °C 0,2 km/h (0 Bft)
30.01.2024 11:00 22,6 °C 6,7 °C 45 % 77 % 1029,0 hPa 0,0 l/m² 0,8 km/h (0 Bft) SO 1,00 h 239 W/m² 3,0 °C 6,7 °C 1,7 km/h (1 Bft)
30.01.2024 12:00 22,8 °C 8,7 °C 45 % 74 % 1028,8 hPa 0,0 l/m² 4,1 km/h (1 Bft) S 0,98 h 320 W/m² 4,4 °C 8,5 °C 6,5 km/h (2 Bft)
30.01.2024 13:00 22,9 °C 10,0 °C 45 % 71 % 1028,1 hPa 0,0 l/m² 3,0 km/h (1 Bft) S-SW 1,02 h 315 W/m² 5,1 °C 9,5 °C 5,1 km/h (1 Bft)
30.01.2024 14:00 22,9 °C 10,0 °C 45 % 73 % 1027,6 hPa 0,0 l/m² 10,2 km/h (2 Bft) S 0,98 h 167 W/m² 5,5 °C 7,6 °C 13,6 km/h (3 Bft)
30.01.2024 15:00 22,7 °C 9,5 °C 45 % 75 % 1027,7 hPa 0,0 l/m² 7,5 km/h (2 Bft) S 0,90 h 80 W/m² 5,4 °C 8,3 °C 10,8 km/h (2 Bft)
30.01.2024 16:00 22,5 °C 8,2 °C 45 % 79 % 1027,8 hPa 0,0 l/m² 5,0 km/h (1 Bft) S 0,00 h 23 W/m² 4,7 °C 7,9 °C 7,0 km/h (2 Bft)
30.01.2024 17:00 22,3 °C 6,9 °C 45 % 82 % 1028,1 hPa 0,0 l/m² 4,6 km/h (1 Bft) S 0,00 h 0 W/m² 4,0 °C 6,8 °C 6,1 km/h (2 Bft)
30.01.2024 18:00 22,1 °C 7,5 °C 47 % 81 % 1028,5 hPa 0,0 l/m² 7,3 km/h (2 Bft) W-SW 0,00 h 0 W/m² 4,4 °C 6,3 °C 10,8 km/h (2 Bft)
30.01.2024 19:00 22,1 °C 6,8 °C 48 % 83 % 1029,0 hPa 0,0 l/m² 1,4 km/h (1 Bft) SW 0,00 h 0 W/m² 4,0 °C 6,8 °C 2,7 km/h (1 Bft)
30.01.2024 20:00 22,3 °C 7,4 °C 48 % 83 % 1029,6 hPa 0,0 l/m² 7,0 km/h (2 Bft) SW 0,00 h 0 W/m² 4,7 °C 6,0 °C 9,2 km/h (2 Bft)
30.01.2024 21:00 22,3 °C 7,5 °C 48 % 83 % 1030,0 hPa 0,0 l/m² 6,1 km/h (2 Bft) S-SW 0,00 h 0 W/m² 4,9 °C 7,0 °C 8,0 km/h (2 Bft)
30.01.2024 22:00 22,2 °C 7,5 °C 50 % 84 % 1030,0 hPa 0,0 l/m² 3,7 km/h (1 Bft) S-SW 0,00 h 0 W/m² 4,9 °C 7,1 °C 5,9 km/h (2 Bft)
30.01.2024 23:00 22,1 °C 7,0 °C 52 % 85 % 1030,2 hPa 0,0 l/m² 3,2 km/h (1 Bft) SW 0,00 h 0 W/m² 4,7 °C 6,7 °C 5,0 km/h (1 Bft)
31.01.2024 00:00 22,1 °C 7,3 °C 52 % 85 % 1030,6 hPa 0,0 l/m² 6,0 km/h (2 Bft) SW 0,00 h 0 W/m² 5,0 °C 7,0 °C 9,1 km/h (2 Bft)
31.01.2024 01:00 22,1 °C 6,6 °C 52 % 87 % 1030,9 hPa 0,0 l/m² 3,6 km/h (1 Bft) SW 0,00 h 0 W/m² 4,5 °C 6,4 °C 5,3 km/h (1 Bft)
31.01.2024 02:00 22,1 °C 6,9 °C 52 % 83 % 1031,2 hPa 0,0 l/m² 13,5 km/h (3 Bft) W-SW 0,00 h 0 W/m² 4,2 °C 2,4 °C 17,8 km/h (3 Bft)
31.01.2024 03:00 22,0 °C 7,5 °C 52 % 80 % 1031,2 hPa 0,0 l/m² 11,2 km/h (2 Bft) SW 0,00 h 0 W/m² 4,2 °C 4,2 °C 14,6 km/h (3 Bft)
31.01.2024 04:00 22,1 °C 7,4 °C 52 % 80 % 1031,4 hPa 0,0 l/m² 9,6 km/h (2 Bft) SW 0,00 h 0 W/m² 4,2 °C 4,9 °C 14,3 km/h (3 Bft)
31.01.2024 05:00 22,1 °C 6,9 °C 51 % 85 % 1032,1 hPa 0,0 l/m² 6,3 km/h (2 Bft) W-NW 0,00 h 0 W/m² 4,5 °C 6,4 °C 13,5 km/h (3 Bft)
31.01.2024 06:00 22,0 °C 6,0 °C 51 % 90 % 1032,1 hPa 0,0 l/m² 4,9 km/h (1 Bft) W 0,00 h 0 W/m² 4,4 °C 5,7 °C 7,9 km/h (2 Bft)
31.01.2024 07:00 21,9 °C 5,3 °C 50 % 91 % 1032,4 hPa 0,0 l/m² 0,4 km/h (0 Bft) W 0,00 h 0 W/m² 4,1 °C 5,3 °C 1,2 km/h (1 Bft)
31.01.2024 08:00 21,9 °C 5,6 °C 50 % 90 % 1032,9 hPa 0,0 l/m² 3,9 km/h (1 Bft) W 0,00 h 15 W/m² 4,1 °C 5,3 °C 8,7 km/h (2 Bft)
31.01.2024 09:00 21,9 °C 5,7 °C 50 % 88 % 1033,4 hPa 0,0 l/m² 4,9 km/h (1 Bft) W-NW 0,20 h 42 W/m² 3,8 °C 5,6 °C 9,9 km/h (2 Bft)
31.01.2024 10:00 21,9 °C 5,9 °C 49 % 85 % 1033,7 hPa 0,0 l/m² 6,5 km/h (2 Bft) W-NW 1,02 h 85 W/m² 3,5 °C 5,1 °C 12,7 km/h (3 Bft)
31.01.2024 11:00 21,9 °C 5,9 °C 49 % 83 % 1033,7 hPa 0,0 l/m² 6,0 km/h (2 Bft) W 0,98 h 76 W/m² 3,2 °C 5,3 °C 10,0 km/h (2 Bft)
31.01.2024 12:00 21,9 °C 6,0 °C 49 % 83 % 1033,4 hPa 0,0 l/m² 4,4 km/h (1 Bft) W 1,00 h 91 W/m² 3,5 °C 5,9 °C 7,7 km/h (2 Bft)
31.01.2024 13:00 21,9 °C 6,4 °C 49 % 78 % 1032,3 hPa 0,0 l/m² 10,9 km/h (2 Bft) W-SW 1,00 h 102 W/m² 2,8 °C 2,9 °C 15,9 km/h (3 Bft)
31.01.2024 14:00 22,0 °C 6,1 °C 49 % 80 % 1031,7 hPa 0,0 l/m² 15,3 km/h (3 Bft) W-SW 1,00 h 63 W/m² 2,9 °C 0,4 °C 21,2 km/h (4 Bft)
31.01.2024 15:00 22,0 °C 6,3 °C 49 % 79 % 1031,0 hPa 0,0 l/m² 15,1 km/h (3 Bft) W-SW 0,48 h 50 W/m² 2,9 °C 0,7 °C 20,2 km/h (4 Bft)
31.01.2024 16:00 21,8 °C 6,0 °C 49 % 82 % 1030,4 hPa 0,0 l/m² 5,4 km/h (1 Bft) S-SW 0,00 h 14 W/m² 3,1 °C 5,8 °C 7,7 km/h (2 Bft)
31.01.2024 17:00 21,9 °C 5,6 °C 48 % 84 % 1029,8 hPa 0,0 l/m² 5,6 km/h (2 Bft) S-SW 0,00 h 0 W/m² 3,0 °C 4,8 °C 8,4 km/h (2 Bft)
31.01.2024 18:00 22,0 °C 6,2 °C 49 % 80 % 1028,8 hPa 0,0 l/m² 13,6 km/h (3 Bft) SW 0,00 h 0 W/m² 2,9 °C 1,4 °C 18,3 km/h (3 Bft)
31.01.2024 19:00 21,9 °C 5,9 °C 48 % 79 % 1028,1 hPa 0,0 l/m² 10,9 km/h (2 Bft) S-SW 0,00 h 0 W/m² 2,6 °C 2,8 °C 15,2 km/h (3 Bft)
31.01.2024 20:00 22,0 °C 4,9 °C 50 % 82 % 1027,4 hPa 0,0 l/m² 8,0 km/h (2 Bft) S-SW 0,00 h 0 W/m² 2,0 °C 3,5 °C 11,0 km/h (2 Bft)
31.01.2024 21:00 22,0 °C 4,6 °C 49 % 81 % 1025,6 hPa 0,0 l/m² 12,1 km/h (2 Bft) S-SW 0,00 h 0 W/m² 1,6 °C 0,4 °C 17,2 km/h (3 Bft)
31.01.2024 22:00 21,8 °C 4,8 °C 49 % 80 % 1024,8 hPa 0,0 l/m² 11,2 km/h (2 Bft) SW 0,00 h 0 W/m² 1,6 °C 1,0 °C 17,6 km/h (3 Bft)
31.01.2024 23:00 21,8 °C 3,9 °C 49 % 82 % 1024,5 hPa 0,0 l/m² 7,3 km/h (2 Bft) SW 0,00 h 0 W/m² 1,1 °C 2,4 °C 11,5 km/h (2 Bft)
01.02.2024 00:00 21,7 °C 4,8 °C 48 % 81 % 1024,1 hPa 0,0 l/m² 17,8 km/h (3 Bft) SW 0,00 h 0 W/m² 1,8 °C -2,4 °C 25,1 km/h (4 Bft)
01.02.2024 01:00 21,7 °C 5,1 °C 48 % 80 % 1023,9 hPa 0,0 l/m² 16,2 km/h (3 Bft) SW 0,00 h 0 W/m² 2,0 °C -1,2 °C 21,1 km/h (4 Bft)
01.02.2024 02:00 21,6 °C 5,3 °C 48 % 80 % 1023,1 hPa 0,0 l/m² 15,8 km/h (3 Bft) SW 0,00 h 0 W/m² 2,1 °C -0,8 °C 20,9 km/h (4 Bft)
01.02.2024 03:00 21,6 °C 5,7 °C 48 % 81 % 1022,8 hPa 0,2 l/m² 20,9 km/h (4 Bft) SW 0,00 h 0 W/m² 2,6 °C -2,6 °C 29,9 km/h (5 Bft)
01.02.2024 04:00 21,6 °C 5,2 °C 48 % 86 % 1022,8 hPa 0,6 l/m² 18,2 km/h (3 Bft) SW 0,00 h 0 W/m² 3,1 °C -2,1 °C 25,9 km/h (4 Bft)
01.02.2024 05:00 21,6 °C 5,2 °C 49 % 89 % 1022,4 hPa 0,2 l/m² 19,2 km/h (3 Bft) SW 0,00 h 0 W/m² 3,5 °C -2,5 °C 27,9 km/h (5 Bft)
01.02.2024 06:00 21,6 °C 5,7 °C 49 % 88 % 1022,8 hPa 0,0 l/m² 18,4 km/h (3 Bft) SW 0,00 h 0 W/m² 3,9 °C -1,5 °C 26,2 km/h (4 Bft)
01.02.2024 07:00 21,6 °C 6,0 °C 48 % 89 % 1023,1 hPa 0,0 l/m² 18,8 km/h (3 Bft) SW 0,00 h 0 W/m² 4,3 °C -1,4 °C 26,6 km/h (4 Bft)
01.02.2024 08:00 21,4 °C 6,0 °C 48 % 90 % 1023,8 hPa 0,0 l/m² 15,5 km/h (3 Bft) SW 0,00 h 23 W/m² 4,5 °C 0,2 °C 21,8 km/h (4 Bft)
01.02.2024 09:00 21,6 °C 6,9 °C 48 % 90 % 1024,7 hPa 0,0 l/m² 13,7 km/h (3 Bft) W-SW 0,82 h 126 W/m² 5,3 °C 2,0 °C 18,8 km/h (3 Bft)
01.02.2024 10:00 22,0 °C 7,8 °C 47 % 84 % 1025,5 hPa 0,0 l/m² 15,8 km/h (3 Bft) W 1,00 h 198 W/m² 5,3 °C 2,3 °C 22,6 km/h (4 Bft)
01.02.2024 11:00 22,8 °C 8,6 °C 46 % 78 % 1026,0 hPa 0,0 l/m² 16,9 km/h (3 Bft) W 1,00 h 386 W/m² 5,0 °C 2,8 °C 26,5 km/h (4 Bft)
01.02.2024 12:00 23,2 °C 9,1 °C 46 % 72 % 1026,2 hPa 0,0 l/m² 15,2 km/h (3 Bft) W-NW 1,02 h 393 W/m² 4,4 °C 4,0 °C 25,6 km/h (4 Bft)
01.02.2024 13:00 23,4 °C 9,4 °C 46 % 65 % 1026,2 hPa 0,0 l/m² 13,5 km/h (3 Bft) W-NW 1,00 h 361 W/m² 3,2 °C 5,1 °C 21,2 km/h (4 Bft)
01.02.2024 14:00 23,3 °C 9,5 °C 46 % 61 % 1026,5 hPa 0,0 l/m² 11,6 km/h (2 Bft) W-NW 1,00 h 276 W/m² 2,3 °C 6,2 °C 20,3 km/h (4 Bft)
01.02.2024 15:00 23,0 °C 8,7 °C 46 % 64 % 1026,9 hPa 0,0 l/m² 12,7 km/h (3 Bft) W-NW 0,93 h 127 W/m² 2,3 °C 4,7 °C 21,7 km/h (4 Bft)
01.02.2024 16:00 22,7 °C 6,9 °C 47 % 70 % 1027,9 hPa 0,0 l/m² 11,0 km/h (2 Bft) W 0,07 h 20 W/m² 1,9 °C 3,7 °C 18,3 km/h (3 Bft)
01.02.2024 17:00 22,3 °C 6,4 °C 46 % 74 % 1028,6 hPa 0,0 l/m² 10,9 km/h (2 Bft) W-NW 0,00 h 0 W/m² 2,1 °C 3,2 °C 17,1 km/h (3 Bft)
01.02.2024 18:00 22,1 °C 6,5 °C 45 % 73 % 1029,1 hPa 0,0 l/m² 14,1 km/h (3 Bft) W 0,00 h 0 W/m² 2,0 °C 1,4 °C 20,4 km/h (4 Bft)
01.02.2024 19:00 22,1 °C 6,0 °C 47 % 74 % 1029,2 hPa 0,0 l/m² 13,5 km/h (3 Bft) W-SW 0,00 h 0 W/m² 1,7 °C 1,2 °C 17,7 km/h (3 Bft)
01.02.2024 20:00 22,1 °C 4,3 °C 47 % 78 % 1029,6 hPa 0,0 l/m² 7,7 km/h (2 Bft) W-SW 0,00 h 0 W/m² 0,8 °C 3,1 °C 10,9 km/h (2 Bft)
01.02.2024 21:00 22,2 °C 3,0 °C 48 % 83 % 1029,9 hPa 0,0 l/m² 7,7 km/h (2 Bft) W-SW 0,00 h 0 W/m² 0,5 °C 1,4 °C 10,5 km/h (2 Bft)
01.02.2024 22:00 22,2 °C 4,4 °C 48 % 83 % 1029,9 hPa 0,0 l/m² 14,0 km/h (3 Bft) SW 0,00 h 0 W/m² 1,8 °C -1,1 °C 18,6 km/h (3 Bft)
01.02.2024 23:00 22,1 °C 4,8 °C 48 % 83 % 1029,9 hPa 0,0 l/m² 14,5 km/h (3 Bft) SW 0,00 h 0 W/m² 2,2 °C -0,8 °C 20,1 km/h (4 Bft)
02.02.2024 00:00 22,0 °C 4,5 °C 48 % 83 % 1029,8 hPa 0,0 l/m² 9,7 km/h (2 Bft) SW 0,00 h 0 W/m² 1,9 °C 1,8 °C 14,1 km/h (3 Bft)
02.02.2024 01:00 22,0 °C 4,2 °C 48 % 85 % 1029,7 hPa 0,0 l/m² 9,0 km/h (2 Bft) SW 0,00 h 0 W/m² 1,8 °C 1,9 °C 13,5 km/h (3 Bft)
02.02.2024 02:00 21,9 °C 4,3 °C 48 % 85 % 1029,5 hPa 0,0 l/m² 11,7 km/h (2 Bft) SW 0,00 h 0 W/m² 2,0 °C 0,3 °C 17,2 km/h (3 Bft)
02.02.2024 03:00 21,8 °C 4,0 °C 48 % 86 % 1029,4 hPa 0,0 l/m² 6,7 km/h (2 Bft) SW 0,00 h 0 W/m² 1,8 °C 2,8 °C 9,6 km/h (2 Bft)
02.02.2024 04:00 21,8 °C 3,5 °C 48 % 87 % 1029,0 hPa 0,0 l/m² 6,5 km/h (2 Bft) SW 0,00 h 0 W/m² 1,5 °C 2,7 °C 9,1 km/h (2 Bft)
02.02.2024 05:00 21,9 °C 3,8 °C 48 % 86 % 1028,8 hPa 0,0 l/m² 6,0 km/h (2 Bft) SW 0,00 h 0 W/m² 1,7 °C 3,1 °C 9,0 km/h (2 Bft)
02.02.2024 06:00 21,8 °C 4,0 °C 47 % 85 % 1028,5 hPa 0,0 l/m² 12,0 km/h (2 Bft) SW 0,00 h 0 W/m² 1,7 °C -0,3 °C 17,2 km/h (3 Bft)
02.02.2024 07:00 21,7 °C 4,3 °C 46 % 84 % 1028,1 hPa 0,0 l/m² 13,1 km/h (3 Bft) SW 0,00 h 5 W/m² 1,8 °C -0,7 °C 18,8 km/h (3 Bft)
02.02.2024 08:00 21,7 °C 4,5 °C 47 % 85 % 1027,8 hPa 0,0 l/m² 10,6 km/h (2 Bft) SW 0,00 h 14 W/m² 2,1 °C 1,4 °C 15,1 km/h (3 Bft)
02.02.2024 09:00 21,7 °C 4,7 °C 47 % 86 % 1027,4 hPa 0,0 l/m² 16,8 km/h (3 Bft) SW 0,28 h 43 W/m² 2,6 °C -2,0 °C 23,2 km/h (4 Bft)
02.02.2024 10:00 21,7 °C 5,4 °C 47 % 85 % 1026,3 hPa 0,0 l/m² 22,0 km/h (4 Bft) S-SW 1,00 h 95 W/m² 3,0 °C -3,3 °C 29,3 km/h (5 Bft)
02.02.2024 11:00 21,6 °C 6,1 °C 46 % 81 % 1025,9 hPa 0,0 l/m² 24,3 km/h (4 Bft) SW 1,02 h 97 W/m² 3,0 °C -3,2 °C 33,2 km/h (5 Bft)
02.02.2024 12:00 21,6 °C 6,6 °C 46 % 78 % 1024,8 hPa 0,0 l/m² 22,7 km/h (4 Bft) SW 1,00 h 108 W/m² 3,1 °C -1,9 °C 30,3 km/h (5 Bft)
02.02.2024 13:00 21,6 °C 7,2 °C 46 % 75 % 1024,0 hPa 0,0 l/m² 21,5 km/h (4 Bft) SW 1,00 h 95 W/m² 3,0 °C -0,8 °C 28,7 km/h (5 Bft)
02.02.2024 14:00 21,7 °C 8,1 °C 46 % 74 % 1023,1 hPa 0,0 l/m² 17,8 km/h (3 Bft) SW 1,00 h 112 W/m² 3,7 °C 1,7 °C 23,7 km/h (4 Bft)
02.02.2024 15:00 21,8 °C 8,0 °C 46 % 75 % 1022,3 hPa 0,0 l/m² 18,0 km/h (3 Bft) SW 0,82 h 82 W/m² 3,8 °C 1,6 °C 23,5 km/h (4 Bft)
02.02.2024 16:00 21,7 °C 7,5 °C 46 % 77 % 1021,8 hPa 0,0 l/m² 15,1 km/h (3 Bft) SW 0,00 h 21 W/m² 3,7 °C 2,1 °C 20,2 km/h (4 Bft)
02.02.2024 17:00 21,5 °C 7,0 °C 46 % 78 % 1021,4 hPa 0,0 l/m² 12,8 km/h (3 Bft) SW 0,00 h 0 W/m² 3,4 °C 2,7 °C 16,9 km/h (3 Bft)
02.02.2024 18:00 21,4 °C 6,9 °C 46 % 79 % 1021,8 hPa 0,0 l/m² 16,8 km/h (3 Bft) SW 0,00 h 0 W/m² 3,5 °C 0,7 °C 22,3 km/h (4 Bft)
02.02.2024 19:00 21,4 °C 6,6 °C 46 % 81 % 1022,0 hPa 0,0 l/m² 13,9 km/h (3 Bft) SW 0,00 h 0 W/m² 3,6 °C 1,7 °C 17,9 km/h (3 Bft)
02.02.2024 20:00 21,4 °C 6,6 °C 46 % 82 % 1022,1 hPa 0,0 l/m² 12,7 km/h (3 Bft) SW 0,00 h 0 W/m² 3,8 °C 2,3 °C 16,5 km/h (3 Bft)
02.02.2024 21:00 21,8 °C 7,6 °C 49 % 83 % 1022,4 hPa 0,0 l/m² 11,0 km/h (2 Bft) SW 0,00 h 0 W/m² 4,9 °C 4,4 °C 14,5 km/h (3 Bft)
02.02.2024 22:00 22,0 °C 8,6 °C 50 % 83 % 1022,3 hPa 0,0 l/m² 17,5 km/h (3 Bft) W-SW 0,00 h 0 W/m² 5,8 °C 2,5 °C 21,9 km/h (4 Bft)
02.02.2024 23:00 21,8 °C 9,1 °C 51 % 83 % 1021,9 hPa 0,0 l/m² 15,7 km/h (3 Bft) SW 0,00 h 0 W/m² 6,2 °C 3,8 °C 21,5 km/h (4 Bft)
03.02.2024 00:00 21,7 °C 9,3 °C 52 % 83 % 1021,9 hPa 0,0 l/m² 17,0 km/h (3 Bft) SW 0,00 h 0 W/m² 6,5 °C 3,5 °C 22,4 km/h (4 Bft)
03.02.2024 01:00 21,6 °C 8,8 °C 52 % 85 % 1021,8 hPa 0,0 l/m² 11,4 km/h (2 Bft) SW 0,00 h 0 W/m² 6,5 °C 5,5 °C 15,9 km/h (3 Bft)
03.02.2024 02:00 21,6 °C 8,8 °C 52 % 87 % 1021,7 hPa 0,0 l/m² 13,8 km/h (3 Bft) SW 0,00 h 0 W/m² 6,7 °C 4,2 °C 18,4 km/h (3 Bft)
03.02.2024 03:00 21,6 °C 9,1 °C 52 % 86 % 1021,6 hPa 0,0 l/m² 17,2 km/h (3 Bft) SW 0,00 h 0 W/m² 6,9 °C 3,2 °C 22,6 km/h (4 Bft)
03.02.2024 04:00 21,4 °C 9,3 °C 51 % 86 % 1021,6 hPa 0,0 l/m² 15,9 km/h (3 Bft) SW 0,00 h 0 W/m² 7,0 °C 3,9 °C 22,3 km/h (4 Bft)
03.02.2024 05:00 21,4 °C 9,3 °C 51 % 86 % 1021,4 hPa 0,0 l/m² 18,1 km/h (3 Bft) SW 0,00 h 0 W/m² 7,0 °C 3,1 °C 24,2 km/h (4 Bft)
03.02.2024 06:00 21,3 °C 9,4 °C 51 % 86 % 1021,2 hPa 0,0 l/m² 19,4 km/h (3 Bft) SW 0,00 h 0 W/m² 7,1 °C 2,7 °C 27,5 km/h (5 Bft)
03.02.2024 07:00 21,2 °C 9,3 °C 50 % 86 % 1021,1 hPa 0,0 l/m² 19,7 km/h (3 Bft) SW 0,00 h 0 W/m² 7,1 °C 2,5 °C 27,4 km/h (5 Bft)
03.02.2024 08:00 21,2 °C 8,9 °C 50 % 86 % 1021,5 hPa 0,0 l/m² 22,1 km/h (4 Bft) SW 0,00 h 12 W/m² 6,7 °C 1,3 °C 30,3 km/h (5 Bft)
03.02.2024 09:00 21,4 °C 8,8 °C 51 % 88 % 1021,7 hPa 0,0 l/m² 24,8 km/h (4 Bft) SW 0,30 h 41 W/m² 7,0 °C 0,2 °C 33,6 km/h (5 Bft)
03.02.2024 10:00 21,3 °C 9,0 °C 50 % 89 % 1021,8 hPa 0,0 l/m² 24,5 km/h (4 Bft) SW 0,97 h 82 W/m² 7,3 °C 0,7 °C 34,2 km/h (5 Bft)
03.02.2024 11:00 21,3 °C 9,2 °C 51 % 89 % 1022,1 hPa 0,0 l/m² 25,1 km/h (4 Bft) SW 1,00 h 90 W/m² 7,5 °C 0,7 °C 33,7 km/h (5 Bft)
03.02.2024 12:00 21,5 °C 9,5 °C 54 % 89 % 1021,8 hPa 0,0 l/m² 23,3 km/h (4 Bft) SW 0,98 h 105 W/m² 7,7 °C 1,7 °C 31,6 km/h (5 Bft)
03.02.2024 13:00 21,5 °C 9,8 °C 54 % 88 % 1021,3 hPa 0,0 l/m² 26,0 km/h (4 Bft) SW 1,02 h 124 W/m² 7,9 °C 1,3 °C 35,1 km/h (5 Bft)
03.02.2024 14:00 21,4 °C 9,8 °C 53 % 89 % 1020,9 hPa 0,0 l/m² 25,7 km/h (4 Bft) SW 0,98 h 104 W/m² 8,1 °C 1,4 °C 34,6 km/h (5 Bft)
03.02.2024 15:00 21,3 °C 9,6 °C 52 % 91 % 1021,0 hPa 0,0 l/m² 21,7 km/h (4 Bft) SW 0,30 h 40 W/m² 8,1 °C 2,2 °C 28,7 km/h (5 Bft)
03.02.2024 16:00 21,4 °C 9,5 °C 53 % 91 % 1021,0 hPa 0,0 l/m² 15,9 km/h (3 Bft) SW 0,00 h 13 W/m² 8,2 °C 4,3 °C 22,6 km/h (4 Bft)
03.02.2024 17:00 21,4 °C 9,6 °C 52 % 91 % 1021,2 hPa 0,0 l/m² 19,3 km/h (3 Bft) SW 0,00 h 0 W/m² 8,1 °C 3,1 °C 26,3 km/h (4 Bft)
03.02.2024 18:00 21,3 °C 9,2 °C 52 % 93 % 1021,2 hPa 0,0 l/m² 13,4 km/h (3 Bft) SW 0,00 h 0 W/m² 8,1 °C 5,0 °C 18,2 km/h (3 Bft)
03.02.2024 19:00 21,3 °C 9,4 °C 52 % 92 % 1021,0 hPa 0,0 l/m² 15,9 km/h (3 Bft) SW 0,00 h 0 W/m² 8,2 °C 4,1 °C 22,2 km/h (4 Bft)
03.02.2024 20:00 21,6 °C 9,3 °C 54 % 92 % 1021,0 hPa 0,0 l/m² 14,6 km/h (3 Bft) SW 0,00 h 0 W/m² 8,0 °C 4,6 °C 20,7 km/h (4 Bft)
03.02.2024 21:00 21,9 °C 9,2 °C 54 % 92 % 1020,9 hPa 0,0 l/m² 15,9 km/h (3 Bft) SW 0,00 h 0 W/m² 8,0 °C 3,8 °C 22,8 km/h (4 Bft)
03.02.2024 22:00 21,9 °C 8,8 °C 53 % 92 % 1020,7 hPa 0,0 l/m² 12,4 km/h (2 Bft) SW 0,00 h 0 W/m² 7,6 °C 5,1 °C 17,9 km/h (3 Bft)
03.02.2024 23:00 21,6 °C 9,0 °C 54 % 91 % 1020,5 hPa 0,0 l/m² 13,4 km/h (3 Bft) SW 0,00 h 0 W/m² 7,6 °C 4,6 °C 19,3 km/h (3 Bft)
04.02.2024 00:00 21,4 °C 9,0 °C 55 % 91 % 1020,5 hPa 0,0 l/m² 10,8 km/h (2 Bft) SW 0,00 h 0 W/m² 7,6 °C 6,1 °C 15,5 km/h (3 Bft)
04.02.2024 01:00 21,4 °C 8,5 °C 55 % 92 % 1020,1 hPa 0,2 l/m² 9,8 km/h (2 Bft) SW 0,00 h 0 W/m² 7,3 °C 6,1 °C 14,0 km/h (3 Bft)
04.02.2024 02:00 21,4 °C 8,7 °C 55 % 91 % 1020,0 hPa 0,0 l/m² 12,8 km/h (3 Bft) SW 0,00 h 0 W/m² 7,4 °C 4,7 °C 18,0 km/h (3 Bft)
04.02.2024 03:00 21,3 °C 7,7 °C 55 % 92 % 1019,8 hPa 0,0 l/m² 8,6 km/h (2 Bft) W-SW 0,00 h 0 W/m² 6,4 °C 6,0 °C 12,9 km/h (3 Bft)
04.02.2024 04:00 21,3 °C 8,2 °C 55 % 92 % 1019,4 hPa 0,0 l/m² 11,9 km/h (2 Bft) SW 0,00 h 0 W/m² 7,0 °C 4,5 °C 17,1 km/h (3 Bft)
04.02.2024 05:00 21,3 °C 8,4 °C 55 % 91 % 1019,3 hPa 0,2 l/m² 13,1 km/h (3 Bft) SW 0,00 h 0 W/m² 7,1 °C 4,3 °C 18,6 km/h (3 Bft)
04.02.2024 06:00 21,3 °C 8,3 °C 55 % 92 % 1018,5 hPa 0,0 l/m² 13,8 km/h (3 Bft) SW 0,00 h 0 W/m² 7,2 °C 3,7 °C 19,3 km/h (3 Bft)
04.02.2024 07:00 21,3 °C 8,6 °C 55 % 93 % 1018,1 hPa 0,0 l/m² 18,5 km/h (3 Bft) SW 0,00 h 0 W/m² 7,5 °C 2,2 °C 26,0 km/h (4 Bft)
04.02.2024 08:00 21,3 °C 9,1 °C 55 % 92 % 1018,1 hPa 0,0 l/m² 13,6 km/h (3 Bft) W-SW 0,00 h 15 W/m² 7,9 °C 4,9 °C 19,4 km/h (3 Bft)
04.02.2024 09:00 21,5 °C 9,2 °C 56 % 92 % 1017,9 hPa 0,0 l/m² 14,3 km/h (3 Bft) SW 0,37 h 44 W/m² 7,9 °C 4,7 °C 20,7 km/h (4 Bft)
04.02.2024 10:00 21,5 °C 9,7 °C 56 % 90 % 1017,7 hPa 0,0 l/m² 16,8 km/h (3 Bft) SW 0,83 h 79 W/m² 8,1 °C 4,0 °C 23,2 km/h (4 Bft)
04.02.2024 11:00 21,3 °C 9,9 °C 53 % 89 % 1017,3 hPa 0,2 l/m² 16,4 km/h (3 Bft) SW 0,80 h 70 W/m² 8,1 °C 4,5 °C 22,7 km/h (4 Bft)
04.02.2024 12:00 21,2 °C 9,7 °C 52 % 91 % 1017,0 hPa 0,4 l/m² 13,3 km/h (3 Bft) W-SW 0,68 h 74 W/m² 8,3 °C 5,7 °C 18,9 km/h (3 Bft)
04.02.2024 13:00 21,1 °C 10,2 °C 53 % 85 % 1016,6 hPa 0,0 l/m² 19,9 km/h (4 Bft) W-SW 0,80 h 95 W/m² 7,8 °C 3,8 °C 26,4 km/h (4 Bft)
04.02.2024 14:00 21,1 °C 10,4 °C 53 % 79 % 1016,6 hPa 0,0 l/m² 25,4 km/h (4 Bft) W-SW 0,45 h 59 W/m² 6,9 °C 2,3 °C 32,9 km/h (5 Bft)
04.02.2024 15:00 21,2 °C 10,0 °C 53 % 78 % 1016,5 hPa 0,0 l/m² 18,5 km/h (3 Bft) W-SW 0,00 h 16 W/m² 6,4 °C 3,9 °C 24,3 km/h (4 Bft)
04.02.2024 16:00 21,2 °C 9,5 °C 53 % 84 % 1016,1 hPa 0,2 l/m² 10,7 km/h (2 Bft) SW 0,00 h 13 W/m² 6,8 °C 6,7 °C 14,3 km/h (3 Bft)
04.02.2024 17:00 21,1 °C 8,8 °C 53 % 90 % 1015,8 hPa 1,0 l/m² 11,9 km/h (2 Bft) SW 0,00 h 0 W/m² 7,2 °C 5,3 °C 16,3 km/h (3 Bft)
04.02.2024 18:00 21,1 °C 8,5 °C 52 % 92 % 1015,8 hPa 1,0 l/m² 7,5 km/h (2 Bft) W-SW 0,00 h 0 W/m² 7,3 °C 7,5 °C 10,5 km/h (2 Bft)
04.02.2024 19:00 21,0 °C 8,3 °C 52 % 92 % 1015,8 hPa 1,2 l/m² 0,2 km/h (0 Bft) W 0,00 h 0 W/m² 7,1 °C 8,3 °C 0,5 km/h (0 Bft)
04.02.2024 20:00 21,1 °C 8,1 °C 52 % 92 % 1015,2 hPa 0,2 l/m² 3,8 km/h (1 Bft) W 0,00 h 0 W/m² 6,9 °C 7,5 °C 5,2 km/h (1 Bft)
04.02.2024 21:00 21,1 °C 8,5 °C 52 % 94 % 1014,4 hPa 0,2 l/m² 13,1 km/h (3 Bft) S-SW 0,00 h 0 W/m² 7,6 °C 4,3 °C 17,0 km/h (3 Bft)
04.02.2024 22:00 21,1 °C 9,1 °C 52 % 94 % 1013,5 hPa 0,0 l/m² 18,0 km/h (3 Bft) SW 0,00 h 0 W/m² 8,2 °C 3,1 °C 24,0 km/h (4 Bft)
04.02.2024 23:00 21,0 °C 9,8 °C 52 % 93 % 1012,9 hPa 0,0 l/m² 24,5 km/h (4 Bft) SW 0,00 h 0 W/m² 8,7 °C 1,7 °C 33,2 km/h (5 Bft)
Min-Datum _ 04.02.24 29.01.24 01.02.24 01.02.24 04.02.24 - 04.02.24 - - - 29.01.24 29.01.24 04.02.24
_ Min-Zeit 23:27 07:54 17:57 14:21 23:22 - 20:01 - - - 07:54 00:25 20:01
Minimum _ 20,9 °C -2,3 °C 42 % 58 % 1012,8 hPa - 0,0 km/h (0 Bft) - - - -4,3 °C -5,7 °C 0,0 km/h (0 Bft)
Max-Datum _ 29.01.24 04.02.24 04.02.24 04.02.24 31.01.24 04.02.24 04.02.24 - 03.02.24 01.02.24 04.02.24 30.01.24 02.02.24
_ Max-Zeit 12:05 14:13 10:08 23:01 11:03 19:09 14:34 - 14:58 11:54 23:52 13:42 11:04
Maximum _ 24,3 °C 10,6 °C 57 % 94 % 1033,9 hPa 1,2 l/m² 33,0 km/h
W-SW (5 Bft)
- 0,08 h 475 W/m² 8,9 °C 10,3 °C 45,1 km/h
SW (6 Bft)
Durchschnitt _ 22,0 °C 6,4 °C 49 % 83 % 1025,6 hPa #5,8 l/m² 10,8 km/h (2 Bft) SW #42:33 h 44 W/m² 3,8 °C 3,1 °C 15,3 km/h (3 Bft)
© 2009 Mathias Hoßbach